createdAt,value
2023-02-27T00:00:15.191Z,0.63
2023-02-27T00:00:47.284Z,0.57
2023-02-27T00:01:19.009Z,0.58
2023-02-27T00:01:50.724Z,0.58
2023-02-27T00:02:22.582Z,0.57
2023-02-27T00:02:54.282Z,0.58
2023-02-27T00:03:26.285Z,0.60
2023-02-27T00:03:57.993Z,0.59
2023-02-27T00:04:29.746Z,0.61
2023-02-27T00:05:02.560Z,0.62
2023-02-27T00:05:34.331Z,0.62
2023-02-27T00:06:06.225Z,0.59
2023-02-27T00:06:37.883Z,0.58
2023-02-27T00:07:09.558Z,0.58
2023-02-27T00:07:41.650Z,0.56
2023-02-27T00:08:13.499Z,0.62
2023-02-27T00:08:45.221Z,0.61
2023-02-27T00:09:16.908Z,0.58
2023-02-27T00:09:48.576Z,0.57
2023-02-27T00:10:20.970Z,0.58
2023-02-27T00:10:52.642Z,0.54
2023-02-27T00:11:24.552Z,0.57
2023-02-27T00:11:56.321Z,0.50
2023-02-27T00:12:27.996Z,0.50
2023-02-27T00:12:59.945Z,0.52
2023-02-27T00:13:31.556Z,0.54
2023-02-27T00:14:03.261Z,0.51
2023-02-27T00:14:35.780Z,0.49
2023-02-27T00:15:17.984Z,0.55
2023-02-27T00:15:50.545Z,0.57
2023-02-27T00:16:22.290Z,0.57
2023-02-27T00:16:53.965Z,0.54
2023-02-27T00:17:28.057Z,0.53
2023-02-27T00:18:00.027Z,0.54
2023-02-27T00:18:31.721Z,0.58
2023-02-27T00:19:04.892Z,0.54
2023-02-27T00:19:36.547Z,0.51
2023-02-27T00:20:13.995Z,0.52
2023-02-27T00:20:45.688Z,0.52
2023-02-27T00:21:18.211Z,0.51
2023-02-27T00:21:49.939Z,0.48
2023-02-27T00:22:21.575Z,0.48
2023-02-27T00:22:53.275Z,0.46
2023-02-27T00:23:24.956Z,0.42
2023-02-27T00:23:56.864Z,0.43
2023-02-27T00:24:28.619Z,0.45
2023-02-27T00:25:00.316Z,0.42
2023-02-27T00:25:33.674Z,0.38
2023-02-27T00:26:05.394Z,0.40
2023-02-27T00:26:38.000Z,0.39
2023-02-27T00:27:09.665Z,0.40
2023-02-27T00:27:41.855Z,0.43
2023-02-27T00:28:13.571Z,0.45
2023-02-27T00:28:45.199Z,0.41
2023-02-27T00:29:16.953Z,0.44
2023-02-27T00:29:48.598Z,0.41
2023-02-27T00:30:20.385Z,0.38
2023-02-27T00:30:52.080Z,0.40
2023-02-27T00:31:23.777Z,0.37
2023-02-27T00:31:55.581Z,0.37
2023-02-27T00:32:27.559Z,0.37
2023-02-27T00:32:59.317Z,0.36
2023-02-27T00:33:30.963Z,0.37
2023-02-27T00:34:04.116Z,0.37
2023-02-27T00:34:35.914Z,0.38
2023-02-27T00:35:10.186Z,0.37
2023-02-27T00:35:41.922Z,0.39
2023-02-27T00:36:13.674Z,0.40
2023-02-27T00:36:45.320Z,0.36
2023-02-27T00:37:17.034Z,0.40
2023-02-27T00:37:48.707Z,0.43
2023-02-27T00:38:20.331Z,0.43
2023-02-27T00:38:52.210Z,0.44
2023-02-27T00:39:23.832Z,0.43
2023-02-27T00:39:55.662Z,0.46
2023-02-27T00:40:27.338Z,0.46
2023-02-27T00:40:59.715Z,0.46
2023-02-27T00:41:31.352Z,0.43
2023-02-27T00:42:03.100Z,0.42
2023-02-27T00:42:35.263Z,0.43
2023-02-27T00:43:06.906Z,0.44
2023-02-27T00:43:38.615Z,0.42
2023-02-27T00:44:10.199Z,0.41
2023-02-27T00:44:41.913Z,0.41
2023-02-27T00:45:13.705Z,0.44
2023-02-27T00:45:45.483Z,0.45
2023-02-27T00:46:17.162Z,0.45
2023-02-27T00:46:48.903Z,0.41
2023-02-27T00:47:20.668Z,0.39
2023-02-27T00:47:52.339Z,0.40
2023-02-27T00:48:24.190Z,0.41
2023-02-27T00:48:56.681Z,0.41
2023-02-27T00:49:28.319Z,0.39
2023-02-27T00:50:00.103Z,0.38
2023-02-27T00:50:31.772Z,0.38
2023-02-27T00:51:03.533Z,0.36
2023-02-27T00:51:35.198Z,0.36
2023-02-27T00:52:06.850Z,0.32
2023-02-27T00:52:39.029Z,0.32
2023-02-27T00:53:10.755Z,0.32
2023-02-27T00:53:42.415Z,0.32
2023-02-27T00:54:14.057Z,0.33
2023-02-27T00:54:45.776Z,0.30
2023-02-27T00:55:17.443Z,0.33
2023-02-27T00:55:49.226Z,0.32
2023-02-27T00:56:20.910Z,0.30
2023-02-27T00:56:52.550Z,0.29
2023-02-27T00:57:24.236Z,0.31
2023-02-27T00:57:55.979Z,0.32
2023-02-27T00:58:27.748Z,0.36
2023-02-27T00:58:59.381Z,0.33
2023-02-27T00:59:31.080Z,0.30
2023-02-27T01:00:02.901Z,0.31
2023-02-27T01:00:34.667Z,0.33
2023-02-27T01:01:06.480Z,0.37
2023-02-27T01:01:38.152Z,0.35
2023-02-27T01:02:10.211Z,0.35
2023-02-27T01:02:42.113Z,0.35
2023-02-27T01:03:13.834Z,0.28
2023-02-27T01:03:45.667Z,0.28
2023-02-27T01:04:17.365Z,0.30
2023-02-27T01:04:49.081Z,0.31
2023-02-27T01:05:21.112Z,0.32
2023-02-27T01:05:52.768Z,0.28
2023-02-27T01:06:24.445Z,0.29
2023-02-27T01:06:56.124Z,0.32
2023-02-27T01:07:27.813Z,0.31
2023-02-27T01:07:59.486Z,0.32
2023-02-27T01:08:31.214Z,0.30
2023-02-27T01:09:04.214Z,0.29
2023-02-27T01:09:35.902Z,0.26
2023-02-27T01:10:09.452Z,0.28
2023-02-27T01:10:41.093Z,0.28
2023-02-27T01:11:12.765Z,0.29
2023-02-27T01:11:44.446Z,0.32
2023-02-27T01:12:16.159Z,0.33
2023-02-27T01:12:47.800Z,0.34
2023-02-27T01:13:19.453Z,0.33
2023-02-27T01:13:51.103Z,0.32
2023-02-27T01:14:22.796Z,0.31
2023-02-27T01:14:54.479Z,0.31
2023-02-27T01:15:26.161Z,0.32
2023-02-27T01:15:57.834Z,0.29
2023-02-27T01:16:29.886Z,0.31
2023-02-27T01:17:01.567Z,0.30
2023-02-27T01:17:33.712Z,0.30
2023-02-27T01:18:05.355Z,0.31
2023-02-27T01:18:36.977Z,0.31
2023-02-27T01:19:08.669Z,0.30
2023-02-27T01:19:40.420Z,0.30
2023-02-27T01:20:13.091Z,0.30
2023-02-27T01:20:44.755Z,0.32
2023-02-27T01:21:16.991Z,0.32
2023-02-27T01:21:48.679Z,0.33
2023-02-27T01:22:20.320Z,0.33
2023-02-27T01:22:51.985Z,0.34
2023-02-27T01:23:23.923Z,0.33
2023-02-27T01:23:55.629Z,0.33
2023-02-27T01:24:27.410Z,0.33
2023-02-27T01:24:59.621Z,0.33
2023-02-27T01:25:31.279Z,0.33
2023-02-27T01:26:03.068Z,0.29
2023-02-27T01:26:34.823Z,0.29
2023-02-27T01:27:06.558Z,0.27
2023-02-27T01:27:38.321Z,0.30
2023-02-27T01:28:10.468Z,0.29
2023-02-27T01:28:42.196Z,0.25
2023-02-27T01:29:15.541Z,0.23
2023-02-27T01:29:47.198Z,0.22
2023-02-27T01:30:19.013Z,0.27
2023-02-27T01:30:50.744Z,0.26
2023-02-27T01:31:22.416Z,0.30
2023-02-27T01:31:54.412Z,0.24
2023-02-27T01:32:26.239Z,0.26
2023-02-27T01:32:57.973Z,0.21
2023-02-27T01:33:29.657Z,0.22
2023-02-27T01:34:01.296Z,0.25
2023-02-27T01:34:34.250Z,0.25
2023-02-27T01:35:06.696Z,0.30
2023-02-27T01:35:38.467Z,0.26
2023-02-27T01:36:10.913Z,0.27
2023-02-27T01:36:43.140Z,0.27
2023-02-27T01:37:14.887Z,0.29
2023-02-27T01:37:46.501Z,0.32
2023-02-27T01:38:18.160Z,0.32
2023-02-27T01:38:49.939Z,0.33
2023-02-27T01:39:21.668Z,0.35
2023-02-27T01:39:53.346Z,0.38
2023-02-27T01:40:25.737Z,0.37
2023-02-27T01:40:57.685Z,0.35
2023-02-27T01:41:29.906Z,0.36
2023-02-27T01:42:01.602Z,0.38
2023-02-27T01:42:33.309Z,0.36
2023-02-27T01:43:06.686Z,0.33
2023-02-27T01:43:57.443Z,0.27
2023-02-27T01:44:30.880Z,0.30
2023-02-27T01:45:10.158Z,0.28
2023-02-27T01:45:43.751Z,0.31
2023-02-27T01:46:15.520Z,0.31
2023-02-27T01:46:47.178Z,0.33
2023-02-27T01:47:18.835Z,0.35
2023-02-27T01:47:57.005Z,0.26
2023-02-27T01:48:38.876Z,0.28
2023-02-27T01:49:20.982Z,0.28
2023-02-27T01:49:52.700Z,0.28
2023-02-27T01:50:25.626Z,0.34
2023-02-27T01:51:16.777Z,0.32
2023-02-27T01:51:53.802Z,0.26
2023-02-27T01:52:25.863Z,0.22
2023-02-27T01:53:01.386Z,0.23
2023-02-27T01:53:37.060Z,0.28
2023-02-27T01:54:12.201Z,0.32
2023-02-27T01:54:44.063Z,0.36
2023-02-27T01:55:16.173Z,0.37
2023-02-27T01:55:49.748Z,0.38
2023-02-27T01:56:25.342Z,0.40
2023-02-27T01:56:57.469Z,0.37
2023-02-27T01:57:29.327Z,0.38
2023-02-27T01:58:01.302Z,0.39
2023-02-27T01:58:34.067Z,0.41
2023-02-27T01:59:09.300Z,0.36
2023-02-27T01:59:42.483Z,0.34
2023-02-27T02:00:14.882Z,0.36
2023-02-27T02:00:47.245Z,0.37
2023-02-27T02:01:20.413Z,0.34
2023-02-27T02:01:52.870Z,0.37
2023-02-27T02:02:31.786Z,0.38
2023-02-27T02:03:12.117Z,0.40
2023-02-27T02:04:01.014Z,0.32
2023-02-27T02:04:36.453Z,0.38
2023-02-27T02:05:09.694Z,0.35
2023-02-27T02:05:42.598Z,0.35
2023-02-27T02:06:14.650Z,0.38
2023-02-27T02:06:50.615Z,0.36
2023-02-27T02:07:22.584Z,0.36
2023-02-27T02:07:54.941Z,0.34
2023-02-27T02:08:30.619Z,0.35
2023-02-27T02:09:03.846Z,0.35
2023-02-27T02:09:45.253Z,0.40
2023-02-27T02:10:18.432Z,0.41
2023-02-27T02:10:52.174Z,0.40
2023-02-27T02:11:24.703Z,0.38
2023-02-27T02:11:59.422Z,0.40
2023-02-27T02:12:36.082Z,0.42
2023-02-27T02:13:07.778Z,0.38
2023-02-27T02:13:41.257Z,0.43
2023-02-27T02:14:13.041Z,0.44
2023-02-27T02:14:44.951Z,0.43
2023-02-27T02:15:17.343Z,0.43
2023-02-27T02:16:15.725Z,0.46
2023-02-27T02:17:18.494Z,0.50
2023-02-27T02:17:54.943Z,0.50
2023-02-27T02:19:14.052Z,0.51
2023-02-27T02:20:07.626Z,0.54
2023-02-27T02:20:56.670Z,0.51
2023-02-27T02:21:30.955Z,0.51
2023-02-27T02:22:23.929Z,0.48
2023-02-27T02:23:13.600Z,0.47
2023-02-27T02:24:15.701Z,0.48
2023-02-27T02:24:50.156Z,0.43
2023-02-27T02:25:55.332Z,0.40
2023-02-27T02:27:01.029Z,0.48
2023-02-27T02:28:12.058Z,0.47
2023-02-27T02:28:49.701Z,0.48
2023-02-27T02:30:12.084Z,0.42
2023-02-27T02:31:28.625Z,0.37
2023-02-27T02:32:06.381Z,0.37
2023-02-27T02:32:41.093Z,0.39
2023-02-27T02:33:24.902Z,0.40
2023-02-27T02:34:50.826Z,0.41
2023-02-27T02:35:47.096Z,0.37
2023-02-27T02:36:46.530Z,0.36
2023-02-27T02:37:36.428Z,0.37
2023-02-27T02:38:29.563Z,0.42
2023-02-27T02:39:15.463Z,0.41
2023-02-27T02:40:05.032Z,0.38
2023-02-27T02:40:48.566Z,0.41
2023-02-27T02:41:51.430Z,0.43
2023-02-27T02:42:34.376Z,0.45
2023-02-27T02:43:29.020Z,0.44
2023-02-27T02:44:24.416Z,0.46
2023-02-27T02:45:11.116Z,0.44
2023-02-27T02:45:54.905Z,0.46
2023-02-27T02:46:47.003Z,0.49
2023-02-27T02:47:51.032Z,0.49
2023-02-27T02:48:33.208Z,0.47
2023-02-27T02:49:24.213Z,0.48
2023-02-27T02:50:40.545Z,0.49
2023-02-27T02:51:22.332Z,0.46
2023-02-27T02:52:09.155Z,0.43
2023-02-27T02:53:18.188Z,0.42
2023-02-27T02:54:00.612Z,0.42
2023-02-27T02:54:50.961Z,0.48
2023-02-27T02:55:41.048Z,0.52
2023-02-27T02:56:34.427Z,0.43
2023-02-27T02:57:40.984Z,0.44
2023-02-27T02:58:21.536Z,0.50
2023-02-27T02:59:10.953Z,0.49
2023-02-27T03:00:13.882Z,0.41
2023-02-27T03:00:52.804Z,0.46
2023-02-27T03:01:33.551Z,0.45
2023-02-27T03:02:11.091Z,0.42
2023-02-27T03:02:50.070Z,0.40
2023-02-27T03:04:02.397Z,0.45
2023-02-27T03:04:39.934Z,0.45
2023-02-27T03:05:35.352Z,0.44
2023-02-27T03:06:18.158Z,0.46
2023-02-27T03:07:04.008Z,0.44
2023-02-27T03:07:51.067Z,0.46
2023-02-27T03:08:29.765Z,0.48
2023-02-27T03:09:29.002Z,0.46
2023-02-27T03:10:16.873Z,0.40
2023-02-27T03:10:53.951Z,0.46
2023-02-27T03:11:31.466Z,0.45
2023-02-27T03:12:06.914Z,0.47
2023-02-27T03:12:44.180Z,0.46
2023-02-27T03:13:27.657Z,0.45
2023-02-27T03:14:09.165Z,0.46
2023-02-27T03:14:45.565Z,0.46
2023-02-27T03:15:25.683Z,0.40
2023-02-27T03:16:21.218Z,0.40
2023-02-27T03:16:57.490Z,0.40
2023-02-27T03:17:55.080Z,0.44
2023-02-27T03:18:41.842Z,0.44
2023-02-27T03:19:23.479Z,0.49
2023-02-27T03:20:06.327Z,0.47
2023-02-27T03:20:45.053Z,0.48
2023-02-27T03:21:25.463Z,0.46
2023-02-27T03:22:07.282Z,0.47
2023-02-27T03:22:44.531Z,0.44
2023-02-27T03:23:23.593Z,0.41
2023-02-27T03:23:58.147Z,0.39
2023-02-27T03:24:38.021Z,0.43
2023-02-27T03:25:12.675Z,0.44
2023-02-27T03:25:46.488Z,0.41
2023-02-27T03:26:24.360Z,0.40
2023-02-27T03:27:03.075Z,0.37
2023-02-27T03:27:45.009Z,0.39
2023-02-27T03:28:22.319Z,0.47
2023-02-27T03:29:06.698Z,0.40
2023-02-27T03:29:47.559Z,0.39
2023-02-27T03:30:28.331Z,0.39
2023-02-27T03:31:14.329Z,0.38
2023-02-27T03:32:18.049Z,0.41
2023-02-27T03:32:52.323Z,0.42
2023-02-27T03:33:37.543Z,0.40
2023-02-27T03:34:27.323Z,0.39
2023-02-27T03:35:00.066Z,0.38
2023-02-27T03:35:53.899Z,0.43
2023-02-27T03:36:47.403Z,0.46
2023-02-27T03:37:24.680Z,0.45
2023-02-27T03:38:27.885Z,0.38
2023-02-27T03:39:02.123Z,0.38
2023-02-27T03:39:51.826Z,0.41
2023-02-27T03:40:48.790Z,0.38
2023-02-27T03:41:31.496Z,0.41
2023-02-27T03:42:15.933Z,0.38
2023-02-27T03:42:57.572Z,0.38
2023-02-27T03:43:45.870Z,0.40
2023-02-27T03:44:33.898Z,0.33
2023-02-27T03:45:28.605Z,0.42
2023-02-27T03:46:17.560Z,0.41
2023-02-27T03:46:49.342Z,0.35
2023-02-27T03:47:21.704Z,0.34
2023-02-27T03:47:53.610Z,0.41
2023-02-27T03:48:25.915Z,0.43
2023-02-27T03:48:57.593Z,0.41
2023-02-27T03:49:29.358Z,0.38
2023-02-27T03:50:01.149Z,0.34
2023-02-27T03:50:34.608Z,0.35
2023-02-27T03:51:06.300Z,0.28
2023-02-27T03:51:38.187Z,0.38
2023-02-27T03:52:09.910Z,0.43
2023-02-27T03:52:41.934Z,0.44
2023-02-27T03:53:35.527Z,0.40
2023-02-27T03:54:14.469Z,0.43
2023-02-27T03:54:59.956Z,0.40
2023-02-27T03:55:39.943Z,0.43
2023-02-27T03:56:16.725Z,0.47
2023-02-27T03:57:01.981Z,0.48
2023-02-27T03:57:35.720Z,0.47
2023-02-27T03:58:07.515Z,0.48
2023-02-27T03:58:40.068Z,0.51
2023-02-27T03:59:11.736Z,0.49
2023-02-27T03:59:43.625Z,0.50
2023-02-27T04:00:21.592Z,0.48
2023-02-27T04:00:53.445Z,0.54
2023-02-27T04:01:26.083Z,0.48
2023-02-27T04:02:00.193Z,0.44
2023-02-27T04:02:33.503Z,0.50
2023-02-27T04:03:06.459Z,0.52
2023-02-27T04:03:52.544Z,0.50
2023-02-27T04:04:27.774Z,0.47
2023-02-27T04:04:59.467Z,0.51
2023-02-27T04:05:31.336Z,0.51
2023-02-27T04:06:23.239Z,0.49
2023-02-27T04:07:18.907Z,0.59
2023-02-27T04:08:19.909Z,0.61
2023-02-27T04:09:26.159Z,0.61
2023-02-27T04:10:32.728Z,0.63
2023-02-27T04:11:22.547Z,0.64
2023-02-27T04:12:12.848Z,0.67
2023-02-27T04:12:47.443Z,0.62
2023-02-27T04:13:37.117Z,0.60
2023-02-27T04:14:33.757Z,0.64
2023-02-27T04:15:24.336Z,0.66
2023-02-27T04:16:28.032Z,0.65
2023-02-27T04:17:30.415Z,0.66
2023-02-27T04:18:29.604Z,0.69
2023-02-27T04:19:28.717Z,0.70
2023-02-27T04:20:13.553Z,0.74
2023-02-27T04:20:55.218Z,0.73
2023-02-27T04:21:35.763Z,0.72
2023-02-27T04:22:29.484Z,0.69
2023-02-27T04:23:16.645Z,0.70
2023-02-27T04:24:00.510Z,0.72
2023-02-27T04:24:37.441Z,0.71
2023-02-27T04:25:27.212Z,0.74
2023-02-27T04:26:16.791Z,0.71
2023-02-27T04:26:59.391Z,0.71
2023-02-27T04:27:37.522Z,0.74
2023-02-27T04:28:17.459Z,0.73
2023-02-27T04:28:59.564Z,0.73
2023-02-27T04:29:49.023Z,0.76
2023-02-27T04:30:29.844Z,0.74
2023-02-27T04:31:16.807Z,0.75
2023-02-27T04:32:12.813Z,0.78
2023-02-27T04:33:12.605Z,0.76
2023-02-27T04:34:23.301Z,0.76
2023-02-27T04:35:02.163Z,0.75
2023-02-27T04:35:46.729Z,0.79
2023-02-27T04:36:24.472Z,0.76
2023-02-27T04:37:05.271Z,0.74
2023-02-27T04:37:49.184Z,0.79
2023-02-27T04:38:39.380Z,0.81
2023-02-27T04:39:27.633Z,0.79
2023-02-27T04:40:12.675Z,0.76
2023-02-27T04:40:53.595Z,0.77
2023-02-27T04:41:45.544Z,0.80
2023-02-27T04:42:21.850Z,0.78
2023-02-27T04:42:56.715Z,0.78
2023-02-27T04:43:31.104Z,0.77
2023-02-27T04:44:08.106Z,0.79
2023-02-27T04:44:42.066Z,0.79
2023-02-27T04:45:20.875Z,0.81
2023-02-27T04:45:56.872Z,0.77
2023-02-27T04:46:32.113Z,0.80
2023-02-27T04:47:07.490Z,0.76
2023-02-27T04:47:50.578Z,0.71
2023-02-27T04:48:30.057Z,0.73
2023-02-27T04:49:13.734Z,0.68
2023-02-27T04:49:55.183Z,0.63
2023-02-27T04:50:40.117Z,0.63
2023-02-27T04:51:20.311Z,0.65
2023-02-27T04:52:03.342Z,0.63
2023-02-27T04:52:44.676Z,0.63
2023-02-27T04:53:24.220Z,0.65
2023-02-27T04:54:02.362Z,0.64
2023-02-27T04:55:06.116Z,0.66
2023-02-27T04:55:47.513Z,0.64
2023-02-27T04:56:27.913Z,0.61
2023-02-27T04:57:06.901Z,0.60
2023-02-27T04:57:52.318Z,0.58
2023-02-27T04:58:46.877Z,0.62
2023-02-27T04:59:27.260Z,0.58
2023-02-27T05:00:06.154Z,0.59
2023-02-27T05:00:43.045Z,0.60
2023-02-27T05:01:22.685Z,0.60
2023-02-27T05:02:11.028Z,0.58
2023-02-27T05:02:52.009Z,0.59
2023-02-27T05:03:31.078Z,0.61
2023-02-27T05:04:05.473Z,0.62
2023-02-27T05:04:40.510Z,0.61
2023-02-27T05:05:20.758Z,0.60
2023-02-27T05:05:57.703Z,0.66
2023-02-27T05:06:35.535Z,0.64
2023-02-27T05:07:12.891Z,0.64
2023-02-27T05:08:23.440Z,0.69
2023-02-27T05:09:09.504Z,0.72
2023-02-27T05:09:49.678Z,0.75
2023-02-27T05:10:26.613Z,0.74
2023-02-27T05:11:22.837Z,0.75
2023-02-27T05:12:01.669Z,0.79
2023-02-27T05:12:44.387Z,0.81
2023-02-27T05:13:26.297Z,0.80
2023-02-27T05:14:10.116Z,0.80
2023-02-27T05:14:54.491Z,0.80
2023-02-27T05:15:36.090Z,0.81
2023-02-27T05:16:27.242Z,0.79
2023-02-27T05:17:11.806Z,0.82
2023-02-27T05:17:55.464Z,0.82
2023-02-27T05:18:27.349Z,0.82
2023-02-27T05:19:01.646Z,0.83
2023-02-27T05:19:35.299Z,0.83
2023-02-27T05:20:08.865Z,0.84
2023-02-27T05:21:10.273Z,0.80
2023-02-27T05:22:03.983Z,0.80
2023-02-27T05:22:38.558Z,0.78
2023-02-27T05:23:27.213Z,0.77
2023-02-27T05:24:07.897Z,0.77
2023-02-27T05:24:59.644Z,0.79
2023-02-27T05:25:39.975Z,0.80
2023-02-27T05:26:17.491Z,0.79
2023-02-27T05:26:55.425Z,0.80
2023-02-27T05:27:33.237Z,0.80
2023-02-27T05:28:26.472Z,0.81
2023-02-27T05:29:13.131Z,0.82
2023-02-27T05:29:59.499Z,0.79
2023-02-27T05:30:51.931Z,0.80
2023-02-27T05:31:49.568Z,0.81
2023-02-27T05:32:48.219Z,0.82
2023-02-27T05:33:31.516Z,0.81
2023-02-27T05:34:16.847Z,0.81
2023-02-27T05:35:09.047Z,0.86
2023-02-27T05:36:03.606Z,0.82
2023-02-27T05:36:53.856Z,0.82
2023-02-27T05:37:34.203Z,0.83
2023-02-27T05:38:20.735Z,0.82
2023-02-27T05:39:06.873Z,0.80
2023-02-27T05:39:42.346Z,0.81
2023-02-27T05:40:20.417Z,0.83
2023-02-27T05:41:04.713Z,0.81
2023-02-27T05:42:02.052Z,0.86
2023-02-27T05:42:40.965Z,0.84
2023-02-27T05:43:38.839Z,0.79
2023-02-27T05:44:21.922Z,0.76
2023-02-27T05:45:05.820Z,0.75
2023-02-27T05:45:42.583Z,0.79
2023-02-27T05:46:21.030Z,0.74
2023-02-27T05:46:59.632Z,0.77
2023-02-27T05:47:37.329Z,0.97
2023-02-27T05:48:19.815Z,0.88
2023-02-27T05:49:00.690Z,0.85
2023-02-27T05:49:45.440Z,0.76
2023-02-27T05:50:23.574Z,0.80
2023-02-27T05:50:58.112Z,0.81
2023-02-27T05:51:34.008Z,0.77
2023-02-27T05:52:15.478Z,0.78
2023-02-27T05:52:49.324Z,0.74
2023-02-27T05:53:24.731Z,0.76
2023-02-27T05:54:41.576Z,0.76
2023-02-27T05:55:24.450Z,0.73
2023-02-27T05:56:01.454Z,0.72
2023-02-27T05:56:36.761Z,0.67
2023-02-27T05:57:14.708Z,0.67
2023-02-27T05:58:15.561Z,0.71
2023-02-27T05:59:02.936Z,0.72
2023-02-27T05:59:43.728Z,0.68
2023-02-27T06:00:19.565Z,0.63
2023-02-27T06:00:57.377Z,0.58
2023-02-27T06:01:29.148Z,0.61
2023-02-27T06:02:01.157Z,0.61
2023-02-27T06:02:33.272Z,0.59
2023-02-27T06:03:05.303Z,0.57
2023-02-27T06:03:39.365Z,0.54
2023-02-27T06:04:11.495Z,0.56
2023-02-27T06:04:43.192Z,0.57
2023-02-27T06:05:17.676Z,0.59
2023-02-27T06:05:53.483Z,0.54
2023-02-27T06:06:26.040Z,0.55
2023-02-27T06:06:58.200Z,0.50
2023-02-27T06:07:34.625Z,0.54
2023-02-27T06:08:06.462Z,0.59
2023-02-27T06:08:38.291Z,0.58
2023-02-27T06:09:10.037Z,0.59
2023-02-27T06:09:43.619Z,0.55
2023-02-27T06:10:17.927Z,0.58
2023-02-27T06:10:52.837Z,0.60
2023-02-27T06:11:24.501Z,0.60
2023-02-27T06:11:56.434Z,0.59
2023-02-27T06:12:28.098Z,0.58
2023-02-27T06:12:59.826Z,0.61
2023-02-27T06:13:31.517Z,0.62
2023-02-27T06:14:03.416Z,0.61
2023-02-27T06:14:35.140Z,0.65
2023-02-27T06:15:07.390Z,0.65
2023-02-27T06:15:39.039Z,0.67
2023-02-27T06:16:13.882Z,0.68
2023-02-27T06:16:45.631Z,0.65
2023-02-27T06:17:17.720Z,0.65
2023-02-27T06:17:49.473Z,0.64
2023-02-27T06:18:21.682Z,0.69
2023-02-27T06:18:53.378Z,0.73
2023-02-27T06:19:25.054Z,0.76
2023-02-27T06:19:56.686Z,0.76
2023-02-27T06:20:28.441Z,0.74
2023-02-27T06:21:00.166Z,0.71
2023-02-27T06:21:32.282Z,0.69
2023-02-27T06:22:03.955Z,0.67
2023-02-27T06:22:35.908Z,0.69
2023-02-27T06:23:08.304Z,0.70
2023-02-27T06:23:40.160Z,0.73
2023-02-27T06:24:11.844Z,0.69
2023-02-27T06:24:43.486Z,0.71
2023-02-27T06:25:15.185Z,0.71
2023-02-27T06:25:48.187Z,0.76
2023-02-27T06:26:19.848Z,0.77
2023-02-27T06:26:51.503Z,0.76
2023-02-27T06:27:23.149Z,0.74
2023-02-27T06:27:54.740Z,0.74
2023-02-27T06:28:26.497Z,0.76
2023-02-27T06:28:58.138Z,0.74
2023-02-27T06:29:30.174Z,0.78
2023-02-27T06:30:02.061Z,0.79
2023-02-27T06:30:33.758Z,0.82
2023-02-27T06:31:05.481Z,0.82
2023-02-27T06:31:37.215Z,0.80
2023-02-27T06:32:08.994Z,0.81
2023-02-27T06:32:40.694Z,0.82
2023-02-27T06:33:12.640Z,0.83
2023-02-27T06:33:44.287Z,0.82
2023-02-27T06:34:15.998Z,0.82
2023-02-27T06:34:47.814Z,0.85
2023-02-27T06:35:19.988Z,0.86
2023-02-27T06:35:52.207Z,0.87
2023-02-27T06:36:23.972Z,0.87
2023-02-27T06:36:55.691Z,0.92
2023-02-27T06:37:27.444Z,0.89
2023-02-27T06:37:59.128Z,1.72
2023-02-27T06:38:31.547Z,3.31
2023-02-27T06:39:04.907Z,3.86
2023-02-27T06:39:36.696Z,3.15
2023-02-27T06:40:12.237Z,2.44
2023-02-27T06:40:44.243Z,2.22
2023-02-27T06:41:15.907Z,2.16
2023-02-27T06:41:47.581Z,2.12
2023-02-27T06:42:19.787Z,2.14
2023-02-27T06:42:51.535Z,2.13
2023-02-27T06:43:23.278Z,2.14
2023-02-27T06:43:55.772Z,2.09
2023-02-27T06:44:27.515Z,2.09
2023-02-27T06:44:59.257Z,2.09
2023-02-27T06:45:30.918Z,2.09
2023-02-27T06:46:03.362Z,2.08
2023-02-27T06:46:35.071Z,2.03
2023-02-27T06:47:06.788Z,2.03
2023-02-27T06:47:39.590Z,2.02
2023-02-27T06:48:12.672Z,2.04
2023-02-27T06:48:44.614Z,2.00
2023-02-27T06:49:16.787Z,1.95
2023-02-27T06:49:48.507Z,1.92
2023-02-27T06:50:20.245Z,1.91
2023-02-27T06:50:53.797Z,1.84
2023-02-27T06:51:25.478Z,1.79
2023-02-27T06:51:57.226Z,1.84
2023-02-27T06:52:29.018Z,1.79
2023-02-27T06:53:00.679Z,1.78
2023-02-27T06:53:32.353Z,1.75
2023-02-27T06:54:04.092Z,1.75
2023-02-27T06:54:35.738Z,1.73
2023-02-27T06:55:09.145Z,1.63
2023-02-27T06:55:42.119Z,1.65
2023-02-27T06:56:13.794Z,1.62
2023-02-27T06:56:46.053Z,1.65
2023-02-27T06:57:17.852Z,1.65
2023-02-27T06:57:49.847Z,1.63
2023-02-27T06:58:24.772Z,1.63
2023-02-27T06:58:58.657Z,1.62
2023-02-27T06:59:31.174Z,1.57
2023-02-27T07:00:04.869Z,1.56
2023-02-27T07:00:36.802Z,1.56
2023-02-27T07:01:08.469Z,1.51
2023-02-27T07:01:40.351Z,1.50
2023-02-27T07:02:16.716Z,1.50
2023-02-27T07:02:48.464Z,1.49
2023-02-27T07:03:20.150Z,1.50
2023-02-27T07:03:52.057Z,1.50
2023-02-27T07:04:23.719Z,1.51
2023-02-27T07:04:55.578Z,1.51
2023-02-27T07:05:27.299Z,1.54
2023-02-27T07:05:59.422Z,1.57
2023-02-27T07:07:33.870Z,1.53
2023-02-27T07:07:34.214Z,1.56
2023-02-27T07:08:09.552Z,1.58
2023-02-27T07:08:54.229Z,1.55
2023-02-27T07:09:33.235Z,1.55
2023-02-27T07:10:08.132Z,1.57
2023-02-27T07:10:40.358Z,1.55
2023-02-27T07:11:12.036Z,1.59
2023-02-27T07:11:43.705Z,1.62
2023-02-27T07:12:15.387Z,1.62
2023-02-27T07:12:47.098Z,1.63
2023-02-27T07:13:19.842Z,1.59
2023-02-27T07:13:51.514Z,1.66
2023-02-27T07:14:23.356Z,1.71
2023-02-27T07:14:54.995Z,1.66
2023-02-27T07:15:26.671Z,1.64
2023-02-27T07:15:58.391Z,1.67
2023-02-27T07:16:30.105Z,1.74
2023-02-27T07:17:04.484Z,1.74
2023-02-27T07:17:36.437Z,1.70
2023-02-27T07:18:08.202Z,1.69
2023-02-27T07:18:40.005Z,1.68
2023-02-27T07:19:11.746Z,1.66
2023-02-27T07:19:43.418Z,1.60
2023-02-27T07:20:15.068Z,1.64
2023-02-27T07:20:50.023Z,1.70
2023-02-27T07:21:21.648Z,1.73
2023-02-27T07:21:53.343Z,1.73
2023-02-27T07:22:25.060Z,1.71
2023-02-27T07:22:56.677Z,1.73
2023-02-27T07:23:28.371Z,1.71
2023-02-27T07:24:00.116Z,1.72
2023-02-27T07:24:31.766Z,1.68
2023-02-27T07:25:04.283Z,1.71
2023-02-27T07:25:36.334Z,1.76
2023-02-27T07:26:08.052Z,1.73
2023-02-27T07:26:39.744Z,1.74
2023-02-27T07:27:11.393Z,1.74
2023-02-27T07:27:45.644Z,1.74
2023-02-27T07:28:17.758Z,1.72
2023-02-27T07:28:49.452Z,1.77
2023-02-27T07:29:21.180Z,1.84
2023-02-27T07:29:52.891Z,1.90
2023-02-27T07:30:24.594Z,1.98
2023-02-27T07:30:56.330Z,2.01
2023-02-27T07:31:29.026Z,2.07
2023-02-27T07:32:01.534Z,2.13
2023-02-27T07:32:33.302Z,2.15
2023-02-27T07:33:05.422Z,2.13
2023-02-27T07:33:37.101Z,2.14
2023-02-27T07:34:11.799Z,2.20
2023-02-27T07:34:43.493Z,2.26
2023-02-27T07:35:15.236Z,2.23
2023-02-27T07:35:46.941Z,2.31
2023-02-27T07:36:18.629Z,2.32
2023-02-27T07:36:50.266Z,2.33
2023-02-27T07:37:21.902Z,2.32
2023-02-27T07:37:53.662Z,2.39
2023-02-27T07:38:25.488Z,2.47
2023-02-27T07:38:58.224Z,2.55
2023-02-27T07:39:29.910Z,2.57
2023-02-27T07:40:01.656Z,2.67
2023-02-27T07:40:33.365Z,2.69
2023-02-27T07:41:05.179Z,2.74
2023-02-27T07:41:36.854Z,2.75
2023-02-27T07:42:08.599Z,2.76
2023-02-27T07:42:40.536Z,2.80
2023-02-27T07:43:12.934Z,2.89
2023-02-27T07:43:44.596Z,2.92
2023-02-27T07:44:16.220Z,2.93
2023-02-27T07:44:47.874Z,2.94
2023-02-27T07:45:19.618Z,2.93
2023-02-27T07:45:51.841Z,2.94
2023-02-27T07:46:24.694Z,2.98
2023-02-27T07:46:56.590Z,2.99
2023-02-27T07:47:30.322Z,3.02
2023-02-27T07:48:02.075Z,3.02
2023-02-27T07:48:34.232Z,3.03
2023-02-27T07:49:05.928Z,3.04
2023-02-27T07:49:37.607Z,3.10
2023-02-27T07:50:13.992Z,3.11
2023-02-27T07:50:45.682Z,3.15
2023-02-27T07:51:17.346Z,3.16
2023-02-27T07:51:49.151Z,3.19
2023-02-27T07:52:20.788Z,3.22
2023-02-27T07:52:53.256Z,3.17
2023-02-27T07:53:25.139Z,3.16
2023-02-27T07:53:58.575Z,3.21
2023-02-27T07:54:30.321Z,3.25
2023-02-27T07:55:01.955Z,3.23
2023-02-27T07:55:34.015Z,3.18
2023-02-27T07:56:06.033Z,3.16
2023-02-27T07:56:37.713Z,3.19
2023-02-27T07:57:09.398Z,3.19
2023-02-27T07:57:41.314Z,3.22
2023-02-27T07:58:13.132Z,3.23
2023-02-27T07:58:44.846Z,3.23
2023-02-27T07:59:16.516Z,3.22
2023-02-27T07:59:48.540Z,3.22
2023-02-27T08:00:20.764Z,3.25
2023-02-27T08:00:54.525Z,3.25
2023-02-27T08:01:26.345Z,3.16
2023-02-27T08:01:57.980Z,3.21
2023-02-27T08:02:29.688Z,3.13
2023-02-27T08:03:01.509Z,3.18
2023-02-27T08:03:33.258Z,3.19
2023-02-27T08:04:04.949Z,3.24
2023-02-27T08:04:36.608Z,3.27
2023-02-27T08:05:08.719Z,3.23
2023-02-27T08:05:40.465Z,3.30
2023-02-27T08:06:12.112Z,3.29
2023-02-27T08:06:43.814Z,3.30
2023-02-27T08:07:15.494Z,3.31
2023-02-27T08:07:47.155Z,3.34
2023-02-27T08:08:18.822Z,3.33
2023-02-27T08:08:51.876Z,3.32
2023-02-27T08:09:23.892Z,3.32
2023-02-27T08:09:55.537Z,3.31
2023-02-27T08:10:27.305Z,3.32
2023-02-27T08:10:58.940Z,3.33
2023-02-27T08:11:30.587Z,3.31
2023-02-27T08:12:03.066Z,3.30
2023-02-27T08:12:35.103Z,3.34
2023-02-27T08:13:06.771Z,3.34
2023-02-27T08:14:03.197Z,3.30
2023-02-27T08:14:30.153Z,3.31
2023-02-27T08:15:02.115Z,3.32
2023-02-27T08:15:34.100Z,3.32